createdAt,value
2023-02-09T00:07:30.838Z,-1.9
2023-02-09T00:19:32.315Z,-2.2
2023-02-09T00:31:30.878Z,-2.7
2023-02-09T00:43:30.863Z,-3.0
2023-02-09T00:55:30.821Z,-3.1
2023-02-09T01:07:30.829Z,-3.2
2023-02-09T01:19:30.886Z,-3.2
2023-02-09T01:32:30.829Z,-3.1
2023-02-09T01:44:30.849Z,-3.2
2023-02-09T01:56:30.873Z,-3.8
2023-02-09T02:08:30.855Z,-4.2
2023-02-09T02:20:31.174Z,-4.3
2023-02-09T02:32:31.210Z,-4.0
2023-02-09T02:44:31.234Z,-4.5
2023-02-09T02:56:31.324Z,-4.9
2023-02-09T03:08:31.354Z,-4.9
2023-02-09T03:20:31.358Z,-4.7
2023-02-09T06:30:10.143Z,-5.8
2023-02-09T06:45:11.948Z,-5.4
2023-02-09T07:01:03.249Z,-4.7
2023-02-09T07:16:03.294Z,-3.8
2023-02-09T07:31:03.401Z,-4.5
2023-02-09T07:35:32.276Z,-4.3
2023-02-09T07:46:44.838Z,-3.9
2023-02-09T07:54:05.459Z,-2.1
2023-02-09T08:01:51.374Z,0.6
2023-02-09T08:07:39.567Z,1.6
2023-02-09T08:12:42.989Z,2.4
2023-02-09T08:17:31.228Z,2.9
2023-02-09T08:32:31.564Z,3.2
2023-02-09T08:58:33.046Z,3.9
2023-02-09T09:09:31.630Z,4.2
2023-02-09T09:15:55.775Z,5.0
2023-02-09T09:30:55.832Z,4.4
2023-02-09T09:36:53.511Z,4.5
2023-02-09T09:56:14.829Z,4.8
2023-02-09T10:03:16.208Z,5.2
2023-02-09T10:11:06.432Z,5.2
2023-02-09T10:14:52.834Z,5.1
2023-02-09T10:27:49.950Z,5.2
2023-02-09T10:42:49.554Z,4.5
2023-02-09T10:50:06.613Z,4.0
2023-02-09T10:55:00.296Z,3.9
2023-02-09T11:09:59.998Z,3.7
2023-02-09T11:25:00.219Z,4.7
2023-02-09T11:31:09.364Z,5.0
2023-02-09T11:46:09.393Z,5.0
2023-02-09T12:01:15.366Z,5.5
2023-02-09T12:07:19.825Z,5.7
2023-02-09T12:22:16.701Z,6.1
2023-02-09T12:27:24.691Z,6.0
2023-02-09T12:42:24.385Z,6.1
2023-02-09T12:58:24.481Z,6.9
2023-02-09T13:13:24.544Z,6.0
2023-02-09T13:29:18.384Z,6.7
2023-02-09T13:37:27.865Z,7.1
2023-02-09T13:52:27.946Z,7.0
2023-02-09T13:59:35.770Z,7.1
2023-02-09T14:03:33.819Z,7.4
2023-02-09T14:09:39.144Z,7.7
2023-02-09T14:24:39.028Z,7.1
2023-02-09T14:34:27.094Z,7.4
2023-02-09T14:44:12.813Z,7.3
2023-02-09T14:58:00.129Z,7.4
2023-02-09T15:02:27.909Z,7.5
2023-02-09T15:14:07.181Z,7.3
2023-02-09T15:17:41.486Z,7.3
2023-02-09T15:22:42.316Z,7.4
2023-02-09T15:26:56.683Z,7.3
2023-02-09T15:41:57.045Z,6.8
2023-02-09T15:46:01.831Z,6.4
2023-02-09T16:01:01.674Z,3.9
2023-02-09T16:08:22.003Z,3.1
2023-02-09T16:19:28.589Z,1.8
2023-02-09T16:26:23.922Z,0.9
2023-02-09T16:37:44.593Z,-0.2
2023-02-09T16:52:12.474Z,-0.9
2023-02-09T16:57:23.893Z,-0.7
2023-02-09T17:12:19.370Z,-0.9
2023-02-09T17:15:59.314Z,-0.8
2023-02-09T17:32:29.091Z,-1.7
2023-02-09T17:45:05.971Z,-2.2
2023-02-09T17:52:42.043Z,-2.4
2023-02-09T18:06:42.114Z,-2.7
2023-02-09T18:12:57.458Z,-2.7
2023-02-09T18:19:11.401Z,-2.9
2023-02-09T18:41:30.650Z,-2.8
2023-02-09T18:53:12.831Z,-3.0
2023-02-09T19:12:05.146Z,-3.6
2023-02-09T19:16:42.304Z,-3.7
2023-02-09T19:21:58.201Z,-3.7
2023-02-09T19:28:28.236Z,-3.4
2023-02-09T19:34:34.066Z,-3.7
2023-02-09T19:45:26.659Z,-3.9
2023-02-09T19:59:26.708Z,-2.3
2023-02-09T20:04:25.885Z,-2.2
2023-02-09T20:09:43.784Z,-2.4
2023-02-09T20:17:55.646Z,-2.8
2023-02-09T20:27:53.397Z,-2.9
2023-02-09T20:37:08.665Z,-3.4
2023-02-09T20:43:26.562Z,-3.7
2023-02-09T20:59:56.021Z,-4.4
2023-02-09T21:13:56.446Z,-4.3
2023-02-09T21:25:59.971Z,-4.5
2023-02-09T21:31:08.738Z,-4.4
2023-02-09T21:41:16.629Z,-4.3
2023-02-09T21:47:56.956Z,-4.6
2023-02-09T21:52:31.344Z,-4.5
2023-02-09T21:56:45.060Z,-4.6
2023-02-09T22:10:44.582Z,-4.5
2023-02-09T22:25:56.279Z,-4.7
2023-02-09T22:39:56.322Z,-4.8
2023-02-09T22:50:16.857Z,-4.6
2023-02-09T22:58:11.088Z,-4.7
2023-02-09T23:06:12.842Z,-4.8
2023-02-09T23:22:28.965Z,-4.5
2023-02-09T23:31:25.707Z,-4.1
2023-02-09T23:35:20.755Z,-4.4
2023-02-09T23:44:32.884Z,-4.5
2023-02-09T23:53:53.146Z,-4.3
